AirNav   Everest Fuels
 
 1070 users online  

KHIG Higginsville Industrial Municipal Airport
Higginsville, Missouri, USA

GOING TO HIGGINSVILLE?


FAA INFORMATION EFFECTIVE 28 MARCH 2019

Location

FAA Identifier: HIG
Lat/Long: 39-04-20.8000N / 093-40-38.5000W
39-04.346667N / 093-40.641667W
39.0724444 / -93.6773611
(estimated)
Elevation: 840 ft. / 256.0 m (surveyed)
Variation: 02E (2005)
From city: 2 miles E of HIGGINSVILLE, MO
Time zone: UTC -5 (UTC -6 during Standard Time)
Zip code: 64037

Airport Operations

Airport use: Open to the public
Control tower: no
ARTCC: KANSAS CITY CENTER
FSS: COLUMBIA FLIGHT SERVICE STATION
NOTAMs facility: COU (NOTAM-D service available)
Attendance: SEP-APR 0800-1700, MAY-AUG 0700-1900
Wind indicator: lighted
Segmented circle: no
Lights: ACTVT MIRL RY 16/34; PAPI & REIL RYS 16 & 34 - CTAF.
Beacon: white-green (lighted land airport)
Operates sunset to sunrise.

Airport Communications

CTAF/UNICOM: 122.8
WX AWOS-3 at RCM (18 nm S): 119.575 (660-422-7010)

Nearby radio navigation aids

VOR radial/distance  VOR name  Freq  Var
ANXr087/21.1NAPOLEON VORTAC114.0007E
BQSr162/34.7BRAYMER VOR/DME111.2003E

 
NDB name  Hdg/Dist  Freq  Var  ID
MARSHALL272/22.537103EPUR .--. ..- .-.
SEDALIA310/32.228103EDMO -.. -- ---

Airport Services

Fuel available: 100LL
FOR SVC AFT HRS, CALL NBRS POSTED ON TERMINAL DOOR.
Parking: hangars and tiedowns
Airframe service: MAJOR
Powerplant service: MAJOR
Bottled oxygen: NONE
Bulk oxygen: NONE

Runway Information

Runway 16/34

Dimensions: 4400 x 75 ft. / 1341 x 23 m
Surface: asphalt, in good condition
Weight bearing capacity: 
Single wheel: 12.5
Double wheel: 16.0
Runway edge lights: medium intensity
Gradient: N
RUNWAY 16  RUNWAY 34
Latitude: 39-04.698333N39-03.996667N
Longitude: 093-40.758333W093-40.525000W
Elevation: 840.0 ft.796.0 ft.
Gradient: 1.0%1.0% UP
Traffic pattern: leftleft
Runway heading: 164 magnetic, 166 true344 magnetic, 346 true
Declared distances: TORA:4400 TODA:4400 ASDA:4400 LDA:4400TORA:4400 TODA:4400 ASDA:4400 LDA:4400
Markings: nonprecision, in good conditionnonprecision, in good condition
Visual slope indicator: 4-light PAPI on left (3.00 degrees glide path)4-light PAPI on left (3.00 degrees glide path)
Runway end identifier lights: yesyes
Touchdown point: yes, no lightsyes, no lights

Airport Ownership and Management from official FAA records

Ownership: Publicly-owned
Owner: CITY OF HIGGINSVILLE
1922 MAIN ST BOX 110
HIGGINSVILLE, MO 64037
Phone 660-584-2106
Manager: CITY OF HIGGINSVILLE
11667 AIRPORT ROAD
HIGGINSVILLE, MO 64037
Phone 660-584-3339

Airport Operational Statistics

Aircraft based on the field: 18
Single engine airplanes: 15
Multi engine airplanes: 2
Jet airplanes: 1
    
Aircraft operations: avg 69/week *
58% transient general aviation
40% local general aviation
1% military
<1% air taxi
* for 12-month period ending 31 December 2017

Additional Remarks

A58-34 RWY 34 6-9 FT BRUSH 30-70 FT FM RWY END, 100-140 FT R.
WILDLIFE ON & INVOF ARPT.
EXTENSIVE HELICOPTER OPERATIONS.

Instrument Procedures

NOTE: All procedures below are presented as PDF files. If you need a reader for these files, you should download the free Adobe Reader.

NOT FOR NAVIGATION. Please procure official charts for flight.
FAA instrument procedures published for use from 28 March 2019 at 0901Z to 25 April 2019 at 0900Z.

 
IAPs - Instrument Approach Procedures
RNAV (GPS) RWY 16   download (201KB)
RNAV (GPS) RWY 34   download (194KB)
NOTE: Special Take-Off Minimums/Departure Procedures apply   download (158KB)

Other nearby airports with instrument procedures:

KRCM - Skyhaven Airport (18 nm S)
KSZL - Whiteman Air Force Base (21 nm S)
KMHL - Marshall Memorial Municipal Airport (22 nm E)
3GV - East Kansas City Airport (25 nm W)
3EX - Excelsior Springs Memorial Airport (29 nm NW)
 
Loc | Ops | Rwys | IFR | FBO | Links
Com | Nav | Svcs | Stats | Notes

Kansas City Aviation Department
 
Area around KHIG (Higginsville Industrial Municipal Airport)
 
Road maps at: MapQuest Bing Google
 
Aerial photo
WARNING: Photo may not be current or correct
Aerial photo of KHIG (Higginsville Industrial Municipal Airport)
Do you have a better or more recent aerial photo of Higginsville Industrial Municipal Airport that you would like to share? If so, please send us your photo.

 
Sectional chart

 
Airport distance calculator
Flying to Higginsville Industrial Municipal Airport? Find the distance to fly.

From to KHIG

Sunrise and sunset
Times for 22-Apr-2019
 Local
(UTC-5)
 Zulu
(UTC)
Morning civil twilight06:0111:01
Sunrise06:2911:29
Sunset19:5700:57
Evening civil twilight20:2601:26

Current date and time
Zulu (UTC)  23-Apr-2019 01:21:52
Local (UTC-5)  22-Apr-2019 20:21:52
 
METAR
KRCM 
18nm S 
230035Z AUTO 21012G15KT 10SM CLR 22/15 A2996 RMK AO2
KMHL 
22nm E 
230055Z AUTO 23006KT 10SM CLR 21/16 A2997 RMK AO2
KSZL 
22nm S 
230056Z 22009KT 10SM SCT080 SCT150 21/17 A2994 RMK A02A SLP137 T02080166 $
KDMO 
32nm SE 
230053Z AUTO 24007KT 10SM CLR 18/17 A2998 RMK AO2 SLP149 T01830167
KLXT 
33nm W 
230053Z AUTO 32011KT 10SM SCT045 BKN050 20/12 A2999 RMK AO2 SLP150 T02000117 $
KGPH 
33nm NW 
230055Z AUTO 33008G14KT 10SM SCT002 19/11 A2999 RMK AO2
TAF
KSZL 
22nm S 
221900Z 2219/2401 22012G18KT 9999 OVC035 QNH2992INS BECMG 2223/2224 31009KT 9999 BKN030 OVC050 QNH2996INS BECMG 2310/2311 01009KT 9999 BKN015 OVC040 QNH3005INS BECMG 2318/2319 02006KT 9999 BKN025 BKN150 QNH3001INS TX24/2221Z TN10/2312Z
NOTAMs
Click for the latest NOTAMs
NOTAMs are issued by the DoD/FAA and will open in a separate window not controlled by AirNav.

 

 
 

FBO, Fuel Providers, and Aircraft Ground Support

  
 Business Name 
 
 Contact 
 
 Services / Description 
 
Fuel Prices
 
Comments
  
City of Higginsville 660-584-3339
no information available

If you are affiliated with City of Higginsville and would like to show here your services, contact info, web link, logo, and more, click here
100LL
SS $3.99 
 Updated 01-Apr-2019
 
   write
SS=Self service
Update Fuel Prices
 

Would you like to see your business listed on this page?

 If your business provides an interesting product or service to pilots, flight crews, aircraft, or users of the Higginsville Industrial Municipal Airport, you should consider listing it here.  To start the listing process, click on the button below
 
Add a business
 

Other Pages about Higginsville Industrial Municipal Airport

Update a link
 
Copyright © AirNav, LLC. All rights reserved. Privacy Policy  Contact